Time;durP1;ratioP1;P1;durP2;ratioP2;P2;SDS_P1;SDS_P2;PMS_P1;PMS_P2;Temp;Humidity;BMP_temperature;BMP_pressure;BME280_temperature;BME280_humidity;BME280_pressure;Samples;Min_cycle;Max_cycle;Signal;HPM_P1;HPM_P2
2022/08/27 00:02:19;;;;;;;13.58;8.03;;;;;;;18.80;69.05;99752.77;2072277;85;29072;-60
2022/08/27 00:05:22;;;;;;;17.37;8.08;;;;;;;18.73;69.10;99751.64;2071969;85;30997;-60
2022/08/27 00:08:24;;;;;;;15.08;7.55;;;;;;;18.67;69.25;99753.55;2072410;85;33101;-62
2022/08/27 00:11:25;;;;;;;14.40;8.00;;;;;;;18.61;69.28;99753.62;2072348;85;30200;-63
2022/08/27 00:14:27;;;;;;;13.65;8.48;;;;;;;18.53;69.40;99759.76;2072815;85;28247;-63
2022/08/27 00:17:29;;;;;;;22.67;9.18;;;;;;;18.48;69.52;99755.76;2072509;85;28740;-63
2022/08/27 00:20:30;;;;;;;14.90;7.85;;;;;;;18.42;69.59;99753.59;2071941;85;32282;-63
2022/08/27 00:23:32;;;;;;;13.35;6.92;;;;;;;18.38;69.76;99753.03;2072271;85;32960;-63
2022/08/27 00:26:33;;;;;;;13.90;7.47;;;;;;;18.34;69.95;99759.72;2072364;85;30496;-64
2022/08/27 00:29:35;;;;;;;12.93;6.55;;;;;;;18.28;70.05;99753.02;2072332;84;27674;-63
2022/08/27 00:32:37;;;;;;;20.43;7.45;;;;;;;18.25;70.27;99753.80;2072074;85;29979;-63
2022/08/27 00:35:39;;;;;;;12.58;6.62;;;;;;;18.21;70.49;99752.72;2072077;85;31549;-63
2022/08/27 00:38:41;;;;;;;13.68;7.58;;;;;;;18.18;70.68;99764.34;2072179;85;34285;-63
2022/08/27 00:41:42;;;;;;;10.72;7.05;;;;;;;18.12;70.81;99756.75;2066146;85;30459;-64
2022/08/27 00:44:43;;;;;;;10.72;6.78;;;;;;;18.07;70.76;99761.24;2050169;86;27678;-64
2022/08/27 00:47:53;;;;;;;13.08;7.08;;;;;;;18.02;71.01;99766.21;2029799;87;28266;-63
2022/08/27 00:50:54;;;;;;;12.70;7.40;;;;;;;17.98;71.08;99761.57;2025670;87;32291;-63
2022/08/27 00:53:58;;;;;;;16.05;7.95;;;;;;;17.94;71.12;99753.31;2025506;87;33964;-63
2022/08/27 00:57:00;;;;;;;15.30;6.92;;;;;;;17.90;71.23;99757.29;2025871;87;29414;-63
2022/08/27 01:00:05;;;;;;;10.80;7.50;;;;;;;17.85;71.33;99752.28;2025885;87;28243;-63
2022/08/27 01:03:08;;;;;;;11.83;7.10;;;;;;;17.81;71.30;99748.13;2025887;87;28668;-63
2022/08/27 01:06:10;;;;;;;12.45;7.80;;;;;;;17.77;71.69;99748.06;1932704;92;31203;-62
2022/08/27 01:09:14;;;;;;;13.45;8.08;;;;;;;17.74;71.73;99761.88;1932343;92;34126;-62
2022/08/27 01:12:15;;;;;;;15.43;8.47;;;;;;;17.69;71.87;99754.16;1932796;92;29345;-63
2022/08/27 01:15:18;;;;;;;10.03;7.55;;;;;;;17.65;72.18;99753.19;1932168;92;27771;-63
2022/08/27 01:18:20;;;;;;;15.78;7.28;;;;;;;17.59;72.17;99750.05;1932615;92;29926;-62
2022/08/27 01:21:32;;;;;;;16.48;8.08;;;;;;;17.55;72.26;99751.78;1932659;92;31856;-62
2022/08/27 01:24:43;;;;;;;12.23;8.13;;;;;;;17.51;72.32;99755.78;1932329;92;32393;-63
2022/08/27 01:27:45;;;;;;;11.43;8.33;;;;;;;17.48;72.58;99747.92;1932668;92;30137;-63
2022/08/27 01:30:47;;;;;;;16.15;7.47;;;;;;;17.42;72.71;99752.87;1928814;91;28506;-63
2022/08/27 01:33:59;;;;;;;19.65;7.83;;;;;;;17.39;72.65;99753.64;1925113;92;29118;-63
2022/08/27 01:37:01;;;;;;;11.53;8.35;;;;;;;17.35;72.77;99752.19;1936324;91;31075;-62
2022/08/27 01:40:04;;;;;;;15.13;7.45;;;;;;;17.31;72.87;99760.57;1956213;91;34160;-62
2022/08/27 01:43:06;;;;;;;17.20;8.23;;;;;;;17.27;73.07;99769.97;1956232;91;29340;-63
2022/08/27 01:46:07;;;;;;;12.85;8.25;;;;;;;17.23;73.24;99768.52;1935918;91;27737;-63
2022/08/27 01:49:09;;;;;;;15.45;7.83;;;;;;;17.20;73.34;99758.45;1956360;91;29892;-62
2022/08/27 01:52:11;;;;;;;14.47;7.42;;;;;;;17.16;73.49;99764.13;1956421;91;31597;-62
2022/08/27 01:55:17;;;;;;;22.15;8.18;;;;;;;17.11;73.56;99762.30;1956154;91;33100;-63
2022/08/27 01:58:23;;;;;;;12.07;7.05;;;;;;;17.08;73.82;99765.78;1956313;91;30134;-62
2022/08/27 02:01:25;;;;;;;13.70;7.70;;;;;;;17.04;73.94;99759.78;1959902;87;27729;-62
2022/08/27 02:04:27;;;;;;;17.00;8.25;;;;;;;17.01;73.99;99759.52;2034137;87;29557;-63
2022/08/27 02:07:29;;;;;;;10.93;7.95;;;;;;;16.99;74.07;99749.83;2034189;87;31050;-63
2022/08/27 02:10:35;;;;;;;14.63;8.70;;;;;;;16.95;74.20;99753.30;2034713;87;34018;-62
2022/08/27 02:13:38;;;;;;;22.25;11.18;;;;;;;16.93;74.45;99750.31;2034334;87;29369;-64
2022/08/27 02:16:40;;;;;;;20.85;11.45;;;;;;;16.92;74.61;99752.66;2034383;87;27655;-64
2022/08/27 02:19:42;;;;;;;23.87;11.90;;;;;;;16.91;74.69;99753.64;2034114;87;29470;-63
2022/08/27 02:22:44;;;;;;;20.68;11.15;;;;;;;16.88;74.87;99747.16;2034408;87;31550;-63
2022/08/27 02:25:46;;;;;;;18.95;10.05;;;;;;;16.85;75.58;99746.43;2034018;87;34243;-62
2022/08/27 02:28:47;;;;;;;17.30;9.90;;;;;;;16.84;75.61;99744.71;2034456;87;29775;-63
2022/08/27 02:31:49;;;;;;;24.00;9.55;;;;;;;16.83;75.71;99739.41;2027781;86;28086;-63
2022/08/27 02:34:51;;;;;;;16.60;9.38;;;;;;;16.82;75.61;99738.57;2025294;87;30848;-63
2022/08/27 02:37:53;;;;;;;15.32;8.48;;;;;;;16.83;75.57;99738.94;2025735;87;31688;-63
2022/08/27 02:40:54;;;;;;;18.37;8.68;;;;;;;16.83;75.66;99740.29;2025607;87;33491;-62
2022/08/27 02:43:56;;;;;;;15.85;9.43;;;;;;;16.82;75.43;99748.04;2025324;87;30498;-62
2022/08/27 02:47:00;;;;;;;15.90;9.35;;;;;;;16.81;75.35;99742.73;2025681;87;28032;-62
2022/08/27 02:50:04;;;;;;;13.05;8.08;;;;;;;16.78;75.46;99747.92;2025520;87;43001;-63
2022/08/27 02:53:07;;;;;;;14.28;8.28;;;;;;;16.76;75.44;99747.70;2025458;87;31997;-63
2022/08/27 02:56:09;;;;;;;17.50;9.05;;;;;;;16.72;75.39;99747.08;2025370;87;33030;-63
2022/08/27 02:59:10;;;;;;;16.35;8.68;;;;;;;16.70;75.42;99754.49;2025722;87;30002;-63
2022/08/27 03:02:12;;;;;;;17.80;9.20;;;;;;;16.66;75.39;99749.81;2025428;87;27754;-63
2022/08/27 03:05:15;;;;;;;13.15;7.33;;;;;;;16.60;75.41;99746.30;2025256;87;29963;-62
2022/08/27 03:08:16;;;;;;;16.75;8.83;;;;;;;16.56;75.44;99747.53;2025349;87;31748;-62
2022/08/27 03:11:18;;;;;;;19.52;9.95;;;;;;;16.53;75.61;99758.13;2025356;87;34118;-62
2022/08/27 03:14:20;;;;;;;13.78;9.03;;;;;;;16.50;75.68;99762.91;2025501;87;29469;-62
2022/08/27 03:20:44;;;;;;;14.93;9.43;;;;;;;16.40;75.74;99777.20;2025031;87;29114;-62
2022/08/27 03:23:45;;;;;;;15.37;10.10;;;;;;;16.36;75.81;99778.94;2025819;87;31083;-62
2022/08/27 03:26:47;;;;;;;15.10;10.30;;;;;;;16.33;75.89;99781.89;2025651;87;33134;-63
2022/08/27 03:29:49;;;;;;;19.02;10.30;;;;;;;16.27;75.86;99773.80;2025521;87;30229;-61
2022/08/27 03:32:52;;;;;;;14.58;9.75;;;;;;;16.25;76.06;99777.95;2037118;86;27728;-61
2022/08/27 03:35:54;;;;;;;19.52;10.18;;;;;;;16.22;76.28;99774.66;2038614;86;28711;-63
2022/08/27 03:38:57;;;;;;;18.32;9.83;;;;;;;16.18;76.35;99778.11;2067534;86;31606;-64
2022/08/27 03:42:01;;;;;;;15.30;10.18;;;;;;;16.17;76.54;99780.92;2067534;86;32964;-61
2022/08/27 03:45:05;;;;;;;15.40;9.48;;;;;;;16.18;76.79;99786.70;2067436;86;30550;-62
2022/08/27 03:48:07;;;;;;;15.53;9.47;;;;;;;16.20;76.88;99788.78;2067940;86;28067;-61
2022/08/27 03:51:12;;;;;;;14.65;9.98;;;;;;;16.23;77.19;99796.65;2067296;86;29944;-62
2022/08/27 03:54:14;;;;;;;18.00;10.45;;;;;;;16.27;77.24;99807.59;2067655;86;31943;-64
2022/08/27 03:57:16;;;;;;;15.95;9.40;;;;;;;16.31;77.31;99806.33;2067350;86;33034;-61
2022/08/27 04:00:18;;;;;;;16.12;10.58;;;;;;;16.37;77.49;99814.45;2067650;86;30181;-64
2022/08/27 04:03:19;;;;;;;17.87;10.38;;;;;;;16.41;77.54;99815.89;2067604;86;27706;-61
2022/08/27 04:06:21;;;;;;;17.25;10.13;;;;;;;16.45;77.60;99824.13;2067662;86;28622;-60
2022/08/27 04:09:24;;;;;;;18.52;10.35;;;;;;;16.52;77.72;99811.84;2067266;86;32359;-65
2022/08/27 04:12:27;;;;;;;14.78;10.32;;;;;;;16.56;77.77;99829.50;2067459;86;33653;-64
2022/08/27 04:15:29;;;;;;;17.15;9.70;;;;;;;16.62;77.82;99849.80;2067591;86;29691;-63
2022/08/27 04:18:31;;;;;;;18.40;10.53;;;;;;;16.67;77.94;99823.20;2067503;86;27718;-61
2022/08/27 04:21:32;;;;;;;15.78;9.33;;;;;;;16.70;77.83;99839.19;2067597;86;28726;-62
2022/08/27 04:24:35;;;;;;;16.90;9.88;;;;;;;16.77;77.90;99824.66;2067702;86;30937;-63
2022/08/27 04:27:37;;;;;;;17.17;10.23;;;;;;;16.81;77.86;99813.95;2067551;86;33009;-60
2022/08/27 04:30:41;;;;;;;17.02;10.65;;;;;;;16.89;77.86;99810.60;2067323;85;30641;-61
2022/08/27 04:33:44;;;;;;;15.53;11.07;;;;;;;16.98;77.87;99803.59;2067810;86;27531;-61
2022/08/27 04:36:46;;;;;;;19.25;11.25;;;;;;;17.07;77.90;99796.02;2058309;86;29512;-64
2022/08/27 04:39:48;;;;;;;16.85;11.40;;;;;;;17.16;77.78;99802.02;2038055;87;31759;-60
2022/08/27 04:42:51;;;;;;;22.20;11.95;;;;;;;17.25;77.77;99797.67;2037823;87;33353;-61
2022/08/27 04:45:53;;;;;;;18.48;12.58;;;;;;;17.35;77.69;99781.97;2037895;87;29349;-60
2022/08/27 04:49:01;;;;;;;18.42;12.65;;;;;;;17.41;77.59;99785.52;2038062;87;27715;-62
2022/08/27 04:52:04;;;;;;;17.98;12.07;;;;;;;17.51;77.64;99780.16;2037917;87;28633;-64
2022/08/27 04:55:07;;;;;;;17.87;11.30;;;;;;;17.59;77.60;99776.27;2037903;87;31074;-61
2022/08/27 04:58:09;;;;;;;20.85;11.95;;;;;;;17.68;77.44;99780.89;2037528;87;34077;-60
2022/08/27 05:01:21;;;;;;;18.35;11.68;;;;;;;17.76;77.33;99787.83;2037721;87;29382;-64
2022/08/27 05:04:22;;;;;;;15.63;11.55;;;;;;;17.88;77.42;99789.95;2037647;87;27705;-64
2022/08/27 05:07:24;;;;;;;18.65;12.33;;;;;;;18.02;77.47;99786.05;2037843;87;29391;-64
2022/08/27 05:10:26;;;;;;;18.35;11.97;;;;;;;18.17;77.41;99778.89;2037526;87;31065;-61
2022/08/27 05:13:28;;;;;;;18.50;11.28;;;;;;;18.31;77.35;99790.70;2037946;87;33338;-61
2022/08/27 05:16:30;;;;;;;17.12;11.63;;;;;;;18.50;77.29;99795.81;2037951;87;29124;-60
2022/08/27 05:19:31;;;;;;;21.68;12.88;;;;;;;18.71;77.21;99793.45;2037950;87;27670;-61
2022/08/27 05:22:33;;;;;;;21.87;12.93;;;;;;;18.91;77.20;99791.12;2037589;87;30032;-60
2022/08/27 05:25:41;;;;;;;28.83;13.38;;;;;;;19.06;76.78;99795.66;2037558;87;32342;-62
2022/08/27 05:28:43;;;;;;;19.98;12.53;;;;;;;19.21;76.70;99796.05;2037659;87;33566;-65
2022/08/27 05:31:46;;;;;;;19.62;12.28;;;;;;;19.40;76.58;99796.55;2034602;86;30542;-60
2022/08/27 05:34:47;;;;;;;16.50;12.23;;;;;;;19.53;76.39;99782.63;2029056;87;28341;-65
2022/08/27 05:37:48;;;;;;;18.98;11.83;;;;;;;19.63;76.27;99791.27;2054785;86;29315;-62
2022/08/27 05:40:50;;;;;;;19.70;12.35;;;;;;;19.71;76.12;99787.29;2068002;86;32189;-66
2022/08/27 05:43:54;;;;;;;18.40;11.88;;;;;;;19.81;76.04;99783.19;2068084;86;32894;-61
2022/08/27 05:46:55;;;;;;;15.53;12.05;;;;;;;19.92;76.18;99780.81;2068106;86;29720;-66
2022/08/27 05:49:56;;;;;;;17.17;12.35;;;;;;;20.04;75.85;99783.69;2067783;86;27654;-63
2022/08/27 05:52:57;;;;;;;22.10;11.80;;;;;;;20.15;75.82;99783.50;2068253;86;29071;-62
2022/08/27 05:55:59;;;;;;;22.45;11.60;;;;;;;20.31;75.73;99785.55;2067959;86;31452;-61
2022/08/27 06:02:20;;;;;;;21.75;11.68;;;;;;;20.63;75.47;99794.23;2067904;86;29752;-62
2022/08/27 06:05:22;;;;;;;16.30;11.75;;;;;;;20.79;75.23;99801.73;2068192;86;27585;-64
2022/08/27 06:08:23;;;;;;;18.48;12.40;;;;;;;20.94;74.99;99804.25;2068103;86;29055;-61
2022/08/27 06:11:25;;;;;;;16.17;12.10;;;;;;;21.12;74.80;99799.30;2068426;86;31981;-61
2022/08/27 06:14:27;;;;;;;20.75;11.83;;;;;;;21.35;74.88;99801.02;2067937;86;32968;-64
2022/08/27 06:17:28;;;;;;;19.62;11.40;;;;;;;21.60;74.70;99801.70;2068073;86;29708;-62
2022/08/27 06:20:30;;;;;;;21.90;10.32;;;;;;;21.84;74.37;99799.16;2048737;86;27671;-62
2022/08/27 06:23:32;;;;;;;15.98;11.68;;;;;;;22.08;73.99;99803.54;2068092;86;29234;-64
2022/08/27 06:26:35;;;;;;;17.50;10.93;;;;;;;22.35;73.70;99795.64;2067940;86;32226;-63
2022/08/27 06:29:36;;;;;;;17.32;11.25;;;;;;;22.70;73.23;99797.81;2067941;86;33455;-65
2022/08/27 06:32:37;;;;;;;18.50;10.90;;;;;;;23.06;72.84;99797.52;2065545;86;29299;-62
2022/08/27 06:35:39;;;;;;;17.80;10.38;;;;;;;23.43;72.25;99795.30;2064280;86;27777;-66
2022/08/27 06:38:41;;;;;;;23.90;11.90;;;;;;;23.81;71.79;99790.11;2029979;86;29093;-65
2022/08/27 06:41:43;;;;;;;14.93;10.18;;;;;;;24.22;71.18;99787.77;2028324;87;32257;-64
2022/08/27 06:44:44;;;;;;;14.58;10.45;;;;;;;24.65;70.07;99789.23;2028196;87;33356;-65
2022/08/27 06:47:48;;;;;;;16.52;10.53;;;;;;;25.06;69.09;99793.09;2027906;87;31494;-66
2022/08/27 06:50:50;;;;;;;16.55;9.90;;;;;;;25.46;68.79;99797.06;2028302;87;27737;-66
2022/08/27 06:53:54;;;;;;;14.23;9.28;;;;;;;25.88;67.80;99783.23;2028251;87;28070;-65
2022/08/27 06:56:58;;;;;;;15.68;10.60;;;;;;;26.27;67.33;99789.47;2028309;87;31932;-66
2022/08/27 07:00:00;;;;;;;17.37;9.80;;;;;;;26.71;66.47;99789.57;2009658;87;33984;-65
2022/08/27 07:03:04;;;;;;;14.80;9.43;;;;;;;27.01;65.34;99786.73;2028427;87;29747;-63
2022/08/27 07:06:06;;;;;;;18.73;9.70;;;;;;;27.36;65.04;99785.45;2028472;87;28267;-65
2022/08/27 07:09:08;;;;;;;14.87;9.48;;;;;;;27.72;63.98;99789.45;2028329;87;28709;-64
2022/08/27 07:12:10;;;;;;;11.85;9.13;;;;;;;28.03;63.86;99791.44;2028198;87;31227;-65
2022/08/27 07:15:12;;;;;;;15.53;9.90;;;;;;;28.29;62.91;99791.27;2028255;87;33180;-66
2022/08/27 07:18:13;;;;;;;15.18;10.23;;;;;;;28.57;62.41;99786.16;2028326;87;29262;-65
2022/08/27 07:21:14;;;;;;;17.73;9.68;;;;;;;28.79;60.93;99784.98;2028402;87;27671;-67
2022/08/27 07:24:16;;;;;;;16.87;10.32;;;;;;;28.88;60.41;99787.53;2027917;87;29422;-67
2022/08/27 07:27:17;;;;;;;18.57;9.10;;;;;;;29.05;60.12;99790.75;2028166;87;31053;-66
2022/08/27 07:30:19;;;;;;;21.65;9.85;;;;;;;29.28;59.79;99800.00;2028256;87;32745;-67
2022/08/27 07:33:20;;;;;;;26.60;10.30;;;;;;;29.49;59.58;99800.34;2030145;86;29782;-65
2022/08/27 07:36:22;;;;;;;21.68;9.38;;;;;;;29.60;58.05;99796.09;2031312;87;27707;-67
2022/08/27 07:39:24;;;;;;;18.27;9.63;;;;;;;29.75;57.86;99800.00;2032613;87;28612;-66
2022/08/27 07:45:47;;;;;;;12.35;9.53;;;;;;;30.03;56.33;99800.28;2032486;87;33513;-66
2022/08/27 07:48:49;;;;;;;15.25;8.83;;;;;;;30.18;55.64;99806.08;2032713;87;29145;-65
2022/08/27 07:51:51;;;;;;;15.90;9.75;;;;;;;30.23;55.63;99808.50;2032733;87;27676;-67
2022/08/27 07:54:53;;;;;;;12.90;8.83;;;;;;;30.24;54.92;99803.84;2032525;87;30028;-65
2022/08/27 07:57:54;;;;;;;14.28;8.85;;;;;;;30.30;55.05;99812.09;2032504;87;32224;-67
2022/08/27 08:00:55;;;;;;;12.53;8.55;;;;;;;30.47;54.99;99806.91;2032459;87;33317;-65
2022/08/27 08:03:57;;;;;;;12.60;8.03;;;;;;;30.74;54.56;99819.27;2032501;87;30140;-67
2022/08/27 08:07:01;;;;;;;15.88;8.58;;;;;;;30.98;53.89;99808.47;2032595;87;27790;-66
2022/08/27 08:10:06;;;;;;;14.60;8.58;;;;;;;31.12;53.25;99808.36;2032221;87;28701;-66
2022/08/27 08:13:08;;;;;;;9.48;8.23;;;;;;;31.25;53.49;99812.99;2032494;87;31039;-66
2022/08/27 08:16:10;;;;;;;13.15;8.35;;;;;;;31.31;52.23;99808.78;2032629;87;33560;-63
2022/08/27 08:19:11;;;;;;;17.45;8.83;;;;;;;31.31;51.94;99803.80;2032470;87;29134;-67
2022/08/27 08:22:13;;;;;;;16.87;8.33;;;;;;;31.14;51.38;99804.35;2032594;87;27707;-66
2022/08/27 08:25:14;;;;;;;15.40;8.48;;;;;;;31.13;51.04;99805.42;2032516;87;29110;-66
2022/08/27 08:28:15;;;;;;;14.07;8.78;;;;;;;31.14;50.68;99803.48;2032561;87;31154;-66
2022/08/27 08:31:17;;;;;;;10.60;6.55;;;;;;;31.21;50.33;99801.53;2032548;87;33117;-66
2022/08/27 08:34:19;;;;;;;13.80;7.85;;;;;;;31.27;50.17;99811.72;2067841;85;30108;-65
2022/08/27 08:37:20;;;;;;;12.47;6.37;;;;;;;31.33;50.13;99812.73;2086043;84;27616;-66
2022/08/27 08:40:35;;;;;;;10.15;7.65;;;;;;;31.37;49.83;99817.58;2069211;86;29858;-62
2022/08/27 08:43:45;;;;;;;15.85;8.75;;;;;;;31.24;49.39;99820.98;2069023;86;31425;-65
2022/08/27 08:46:51;;;;;;;14.83;8.00;;;;;;;31.10;49.56;99823.82;2068787;86;32962;-65
2022/08/27 08:50:26;;;;;;;12.90;7.47;;;;;;;31.06;49.87;99825.33;2069187;86;29326;-64
2022/08/27 08:53:49;;;;;;;13.32;8.13;;;;;;;31.18;49.96;99825.50;2071361;84;28225;-66
2022/08/27 08:56:59;;;;;;;14.47;7.33;;;;;;;31.41;49.58;99821.29;2090251;84;29916;-64
2022/08/27 09:00:11;;;;;;;12.88;6.33;;;;;;;31.64;48.78;99827.58;2071422;84;31404;-64
2022/08/27 09:03:14;;;;;;;12.95;7.45;;;;;;;31.77;48.11;99828.86;2071391;86;33005;-65
2022/08/27 09:06:48;;;;;;;11.25;7.22;;;;;;;31.87;47.69;99828.34;2072493;84;30789;-65
2022/08/27 09:09:54;;;;;;;13.22;7.05;;;;;;;31.79;47.65;99829.48;2070946;84;27565;-67
2022/08/27 09:13:01;;;;;;;14.23;8.28;;;;;;;31.47;47.81;99835.07;2084756;84;29481;-65
2022/08/27 09:16:04;;;;;;;12.60;7.62;;;;;;;31.24;47.94;99835.68;2075367;84;31856;-64
2022/08/27 09:19:06;;;;;;;14.57;8.63;;;;;;;30.87;47.95;99836.84;2094382;84;32352;-66
2022/08/27 09:22:27;;;;;;;11.30;7.37;;;;;;;30.59;48.69;99837.52;2082712;84;30167;-65
2022/08/27 09:25:36;;;;;;;14.50;6.67;;;;;;;30.37;48.85;99839.70;2075448;84;27936;-63
2022/08/27 09:32:08;;;;;;;9.68;5.50;;;;;;;30.03;49.72;99851.38;2068097;84;32254;-65
2022/08/27 09:35:12;;;;;;;11.30;7.30;;;;;;;29.91;49.83;99853.09;2083448;84;33430;-65
2022/08/27 09:38:33;;;;;;;14.20;7.70;;;;;;;29.75;49.66;99853.84;2082878;84;30265;-64
2022/08/27 09:41:47;;;;;;;11.63;6.75;;;;;;;29.55;49.62;99853.84;2074402;84;27706;-64
2022/08/27 09:44:48;;;;;;;;;;;;;;;29.45;49.84;99854.80;2069322;84;28590;-66
2022/08/27 09:48:15;;;;;;;11.55;7.67;;;;;;;29.36;49.52;99850.02;2094083;84;28176;-65
2022/08/27 09:51:20;;;;;;;12.23;6.40;;;;;;;29.37;49.72;99838.75;2083050;84;33398;-64
2022/08/27 09:54:32;;;;;;;12.15;5.90;;;;;;;29.49;49.48;99845.05;2084736;84;29429;-67
2022/08/27 09:57:38;;;;;;;9.60;6.22;;;;;;;29.55;49.36;99842.28;2085691;84;28151;-65
2022/08/27 10:00:40;;;;;;;12.63;6.75;;;;;;;29.59;49.74;99833.58;2064292;84;29831;-66
2022/08/27 10:03:42;;;;;;;13.32;6.10;;;;;;;29.59;49.73;99836.34;2082326;84;31146;-65
2022/08/27 10:06:47;;;;;;;8.70;5.90;;;;;;;29.59;49.42;99838.55;2052951;85;33358;-66
2022/08/27 10:10:12;;;;;;;13.25;4.62;;;;;;;29.55;49.45;99834.00;2094862;83;29389;-65
2022/08/27 10:13:36;;;;;;;10.13;6.03;;;;;;;29.54;49.32;99832.30;2088406;83;27667;-64
2022/08/27 10:17:19;;;;;;;9.43;6.08;;;;;;;29.55;49.08;99833.13;2092826;83;28686;-66
2022/08/27 10:20:57;;;;;;;12.10;6.37;;;;;;;29.58;49.14;99832.72;2087503;83;31392;-65
2022/08/27 10:24:31;;;;;;;11.83;5.87;;;;;;;29.62;49.10;99834.54;2101611;83;33515;-65
2022/08/27 10:27:41;;;;;;;9.05;5.85;;;;;;;29.84;49.19;99831.84;2090542;83;29694;-64
2022/08/27 10:31:22;;;;;;;11.73;6.58;;;;;;;30.02;49.19;99835.88;2085715;83;28134;-66
2022/08/27 10:35:17;;;;;;;5.47;3.55;;;;;;;30.22;49.85;99831.66;2105745;83;29184;-67
2022/08/27 10:38:38;;;;;;;7.42;3.77;;;;;;;30.44;49.46;99836.40;2112168;83;32427;-66
2022/08/27 10:41:47;;;;;;;9.98;5.25;;;;;;;30.43;48.32;99842.98;2108541;83;33003;-66
2022/08/27 10:45:29;;;;;;;12.68;6.80;;;;;;;30.44;48.18;99850.22;2100731;83;29718;-65
2022/08/27 10:48:42;;;;;;;9.63;6.25;;;;;;;30.36;48.29;99840.77;2110521;83;27599;-66
2022/08/27 10:52:01;;;;;;;12.60;7.10;;;;;;;30.20;48.20;99843.47;2115247;83;28703;-68
2022/08/27 10:55:22;;;;;;;2.87;2.35;;;;;;;30.10;48.47;99840.31;2099509;83;31437;-68
2022/08/27 10:59:03;;;;;;;10.38;5.58;;;;;;;30.05;48.54;99838.21;2108273;83;34313;-67
2022/08/27 11:02:25;;;;;;;8.85;6.70;;;;;;;30.04;47.51;99832.88;2076274;84;30619;-69
2022/08/27 11:05:38;;;;;;;9.20;5.70;;;;;;;29.89;48.05;99837.26;2081253;84;27752;-65
2022/08/27 11:08:49;;;;;;;10.00;5.53;;;;;;;29.76;48.31;99833.97;2072206;85;29922;-65
2022/08/27 11:11:55;;;;;;;7.75;5.10;;;;;;;29.69;48.35;99843.65;2073304;85;32181;-66
2022/08/27 11:15:02;;;;;;;5.65;4.55;;;;;;;29.60;48.37;99836.66;2070335;85;33088;-64
2022/08/27 11:18:42;;;;;;;9.03;4.22;;;;;;;29.58;48.66;99832.72;2073479;85;30645;-67
2022/08/27 11:22:16;;;;;;;10.23;3.98;;;;;;;29.48;47.72;99829.54;2074541;85;27648;-67
2022/08/27 11:25:50;;;;;;;7.78;4.03;;;;;;;29.30;47.59;99824.09;2098088;84;28671;-66
2022/08/27 11:28:55;;;;;;;8.23;3.83;;;;;;;29.16;48.00;99827.91;2098100;84;31414;-67
2022/08/27 11:32:30;;;;;;;8.15;4.33;;;;;;;29.15;48.25;99827.58;2097898;84;33230;-67
2022/08/27 11:35:57;;;;;;;6.30;4.42;;;;;;;29.15;47.98;99822.06;2061801;84;35231;-68
2022/08/27 11:39:39;;;;;;;5.15;3.92;;;;;;;29.08;48.13;99817.37;2057793;86;27529;-66
2022/08/27 11:42:48;;;;;;;8.53;4.92;;;;;;;29.04;48.13;99820.23;2048522;86;29822;-69
2022/08/27 11:46:05;;;;;;;5.05;4.25;;;;;;;29.05;48.76;99808.69;2048219;86;31084;-66
2022/08/27 11:49:06;;;;;;;3.22;1.65;;;;;;;29.07;48.90;99806.02;2048527;86;33407;-68
2022/08/27 11:52:08;;;;;;;5.75;5.08;;;;;;;29.09;49.18;99801.15;2048610;86;30094;-66
2022/08/27 11:55:27;;;;;;;8.23;6.05;;;;;;;29.15;49.30;99795.31;2048308;86;27693;-65
2022/08/27 11:58:30;;;;;;;8.35;4.87;;;;;;;29.20;49.34;99786.43;2047392;86;29932;-66
2022/08/27 12:01:31;;;;;;;7.05;4.12;;;;;;;29.22;49.38;99794.80;2025976;86;31792;-64
2022/08/27 12:04:41;;;;;;;6.97;3.83;;;;;;;29.27;49.33;99792.78;2023768;87;32866;-65
2022/08/27 12:07:47;;;;;;;9.35;5.35;;;;;;;29.26;49.12;99784.19;2023801;88;29407;-67
2022/08/27 12:11:03;;;;;;;9.50;5.08;;;;;;;29.16;49.11;99774.95;2024064;87;27681;-67
2022/08/27 12:14:22;;;;;;;10.10;5.37;;;;;;;29.09;49.11;99770.81;2031238;86;29846;-67
2022/08/27 12:17:42;;;;;;;7.47;5.28;;;;;;;29.06;49.51;99766.25;2023237;86;32394;-65
2022/08/27 12:21:15;;;;;;;7.55;4.58;;;;;;;29.02;49.39;99760.32;2022864;86;32967;-65
2022/08/27 12:24:48;;;;;;;8.15;5.25;;;;;;;28.95;48.97;99754.80;1948783;90;29803;-69
2022/08/27 12:27:58;;;;;;;13.28;5.42;;;;;;;28.91;49.67;99741.11;1948192;91;27734;-67
2022/08/27 12:31:03;;;;;;;8.18;4.95;;;;;;;28.83;50.34;99737.70;1947191;91;29861;-70
2022/08/27 12:34:03;;;;;;;11.60;5.93;;;;;;;28.77;50.19;99736.64;1952586;90;32313;-65
2022/08/27 12:37:05;;;;;;;11.55;5.15;;;;;;;28.71;50.16;99730.55;1972244;89;34002;-68
2022/08/27 12:40:25;;;;;;;13.68;4.97;;;;;;;28.61;50.48;99731.81;1982914;89;29721;-69
2022/08/27 12:43:32;;;;;;;9.40;4.62;;;;;;;28.52;50.13;99734.43;1965059;89;28409;-69
2022/08/27 12:46:49;;;;;;;6.05;3.02;;;;;;;28.50;49.17;99733.78;1962302;90;28739;-69
2022/08/27 12:49:56;;;;;;;11.63;4.58;;;;;;;28.52;49.68;99741.31;1963222;90;31070;-71
2022/08/27 12:53:33;;;;;;;2.80;2.60;;;;;;;28.54;49.15;99737.83;1963975;90;33146;-66
2022/08/27 12:57:07;;;;;;;4.62;3.27;;;;;;;28.59;48.17;99739.95;1964271;90;29379;-70
2022/08/27 13:00:18;;;;;;;4.73;3.73;;;;;;;28.60;48.43;99740.27;1977297;86;27710;-69
2022/08/27 13:03:30;;;;;;;4.47;2.80;;;;;;;28.61;48.65;99742.84;2032903;86;28662;-70
2022/08/27 13:06:34;;;;;;;7.00;3.75;;;;;;;28.63;48.93;99749.52;2050236;86;31271;-67
2022/08/27 13:09:38;;;;;;;3.42;2.92;;;;;;;28.60;48.71;99744.41;2066370;86;32960;-67
2022/08/27 13:12:42;;;;;;;11.48;4.60;;;;;;;28.57;48.76;99744.31;2066391;86;29459;-69
2022/08/27 13:15:57;;;;;;;7.25;4.45;;;;;;;28.58;49.42;99746.52;2066058;86;27684;-67
2022/08/27 13:18:59;;;;;;;8.88;3.67;;;;;;;28.54;49.15;99739.20;2036931;86;29954;-68
2022/08/27 13:22:03;;;;;;;7.42;3.42;;;;;;;28.45;49.28;99741.84;2027213;87;32409;-68
2022/08/27 13:25:09;;;;;;;13.32;5.97;;;;;;;28.37;49.58;99744.27;2027075;86;34205;-67
2022/08/27 13:28:14;;;;;;;9.35;5.42;;;;;;;28.29;49.96;99739.78;2027734;87;29361;-70
2022/08/27 13:31:16;;;;;;;15.28;5.45;;;;;;;28.27;49.95;99747.91;2030842;87;28556;-68
2022/08/27 13:34:21;;;;;;;5.55;4.58;;;;;;;28.20;50.46;99745.14;2038656;86;28846;-68
2022/08/27 13:37:45;;;;;;;8.05;4.50;;;;;;;28.13;50.26;99744.28;2062766;86;31241;-68
2022/08/27 13:41:07;;;;;;;9.08;4.75;;;;;;;28.07;50.13;99745.89;2057931;86;33010;-68
2022/08/27 13:44:13;;;;;;;6.60;4.22;;;;;;;27.94;50.32;99748.59;2070599;84;29538;-71
2022/08/27 13:47:21;;;;;;;10.08;5.05;;;;;;;27.79;50.67;99746.82;2095633;84;27722;-71
2022/08/27 13:50:27;;;;;;;10.43;5.12;;;;;;;27.66;50.68;99754.47;2095653;84;28668;-67
2022/08/27 13:57:02;;;;;;;6.47;4.47;;;;;;;27.44;51.14;99753.14;2025033;87;32146;-63
2022/08/27 14:00:26;;;;;;;5.90;3.52;;;;;;;27.36;51.25;99749.16;2024886;87;29359;-67
2022/08/27 14:03:34;;;;;;;6.47;4.95;;;;;;;27.26;51.49;99755.54;2057981;86;28152;-65
2022/08/27 14:06:45;;;;;;;5.60;4.20;;;;;;;27.16;51.62;99757.25;2034949;87;29481;-66
2022/08/27 14:09:57;;;;;;;8.65;4.45;;;;;;;27.07;51.37;99757.92;2034314;87;31053;-64
2022/08/27 14:13:16;;;;;;;5.72;3.55;;;;;;;26.99;51.80;99756.67;2033886;87;33877;-66
2022/08/27 14:16:26;;;;;;;7.47;4.08;;;;;;;26.97;51.34;99751.38;2047725;85;30492;-63
2022/08/27 14:19:31;;;;;;;7.03;3.90;;;;;;;26.94;51.26;99760.55;2068531;85;27599;-70
2022/08/27 14:22:33;;;;;;;5.33;4.10;;;;;;;26.97;51.83;99759.63;2068634;86;28642;-65
2022/08/27 14:25:34;;;;;;;7.10;4.20;;;;;;;27.02;51.55;99756.28;2068622;85;31153;-69
2022/08/27 14:28:35;;;;;;;6.78;4.87;;;;;;;27.06;51.62;99749.34;2068181;86;33852;-65
2022/08/27 14:31:37;;;;;;;9.25;4.45;;;;;;;27.13;51.95;99757.64;2068473;86;29779;-69
2022/08/27 14:34:38;;;;;;;5.78;3.90;;;;;;;27.22;52.25;99754.23;2058467;85;27975;-66
2022/08/27 14:37:41;;;;;;;5.95;3.98;;;;;;;27.36;52.37;99759.32;2032381;87;29153;-66
2022/08/27 14:40:43;;;;;;;7.97;4.12;;;;;;;27.44;52.19;99755.89;2032400;87;31512;-68
2022/08/27 14:43:44;;;;;;;5.03;3.83;;;;;;;27.52;51.92;99754.92;2032464;87;34132;-63
2022/08/27 14:46:46;;;;;;;5.45;3.90;;;;;;;27.56;51.88;99754.82;2032137;87;29658;-65
2022/08/27 14:49:47;;;;;;;7.03;4.30;;;;;;;27.60;51.84;99755.30;2032641;87;27672;-66